Aviation Digital Data Service (ADDS)

Output produced by METARs form (1855 UTC 02 September 2014)
found at http://aviationweather.gov/adds/metars/
 
KMHT 021736Z 0218/0318 22007G20KT P6SM -TSRA BKN050CB 
     FM022200 21006KT P6SM BKN050 
     FM030000 19005KT P6SM SCT050 
     FM030400 23005KT P6SM BKN050 
     FM030600 26005KT 5SM -SHRA BKN040 
     FM031000 30007KT P6SM BKN050